sensor_id;sensor_type;location;lat;lon;timestamp;temperature;humidity
53208;DHT22;39093;52.788;6.940;2023-03-31T00:02:04;11.60;99.90
53208;DHT22;39093;52.788;6.940;2023-03-31T00:04:42;11.60;99.90
53208;DHT22;39093;52.788;6.940;2023-03-31T00:07:19;11.60;99.90
53208;DHT22;39093;52.788;6.940;2023-03-31T00:09:50;11.60;99.90
53208;DHT22;39093;52.788;6.940;2023-03-31T00:12:36;11.50;99.90
53208;DHT22;39093;52.788;6.940;2023-03-31T00:15:03;11.50;99.90
53208;DHT22;39093;52.788;6.940;2023-03-31T00:17:30;11.50;99.90
53208;DHT22;39093;52.788;6.940;2023-03-31T00:19:59;11.40;99.90
53208;DHT22;39093;52.788;6.940;2023-03-31T00:22:29;11.50;99.90
53208;DHT22;39093;52.788;6.940;2023-03-31T00:24:56;11.40;99.90
53208;DHT22;39093;52.788;6.940;2023-03-31T00:27:23;11.40;99.90
53208;DHT22;39093;52.788;6.940;2023-03-31T00:29:50;11.40;99.90
53208;DHT22;39093;52.788;6.940;2023-03-31T00:32:18;11.30;99.90
53208;DHT22;39093;52.788;6.940;2023-03-31T00:34:45;11.30;99.90
53208;DHT22;39093;52.788;6.940;2023-03-31T00:37:12;11.20;99.90
53208;DHT22;39093;52.788;6.940;2023-03-31T00:39:41;11.10;99.90
53208;DHT22;39093;52.788;6.940;2023-03-31T00:42:11;11.10;99.90
53208;DHT22;39093;52.788;6.940;2023-03-31T00:47:53;11.00;99.90
53208;DHT22;39093;52.788;6.940;2023-03-31T00:50:23;10.90;99.90
53208;DHT22;39093;52.788;6.940;2023-03-31T00:52:55;10.90;99.90
53208;DHT22;39093;52.788;6.940;2023-03-31T00:55:30;10.80;99.90
53208;DHT22;39093;52.788;6.940;2023-03-31T00:57:58;10.80;99.90
53208;DHT22;39093;52.788;6.940;2023-03-31T01:00:27;10.70;99.90
53208;DHT22;39093;52.788;6.940;2023-03-31T01:02:59;10.70;99.90
53208;DHT22;39093;52.788;6.940;2023-03-31T01:05:47;10.80;99.90
53208;DHT22;39093;52.788;6.940;2023-03-31T01:08:17;10.60;99.90
53208;DHT22;39093;52.788;6.940;2023-03-31T01:10:48;10.60;99.90
53208;DHT22;39093;52.788;6.940;2023-03-31T01:13:17;10.60;99.90
53208;DHT22;39093;52.788;6.940;2023-03-31T01:15:45;10.50;99.90
53208;DHT22;39093;52.788;6.940;2023-03-31T01:18:13;10.50;99.90
53208;DHT22;39093;52.788;6.940;2023-03-31T01:42:28;10.30;99.90
53208;DHT22;39093;52.788;6.940;2023-03-31T01:45:13;10.30;99.90
53208;DHT22;39093;52.788;6.940;2023-03-31T01:47:48;10.30;99.90
53208;DHT22;39093;52.788;6.940;2023-03-31T01:56:01;10.30;99.90
53208;DHT22;39093;52.788;6.940;2023-03-31T01:58:35;10.30;99.90
53208;DHT22;39093;52.788;6.940;2023-03-31T02:01:19;10.30;99.90
53208;DHT22;39093;52.788;6.940;2023-03-31T02:03:54;10.30;99.90
53208;DHT22;39093;52.788;6.940;2023-03-31T02:06:27;10.20;99.90
53208;DHT22;39093;52.788;6.940;2023-03-31T02:09:00;10.20;99.90
53208;DHT22;39093;52.788;6.940;2023-03-31T02:11:29;10.20;99.90
53208;DHT22;39093;52.788;6.940;2023-03-31T02:13:58;10.20;99.90
53208;DHT22;39093;52.788;6.940;2023-03-31T02:16:29;10.20;99.90
53208;DHT22;39093;52.788;6.940;2023-03-31T02:19:01;10.20;99.90
53208;DHT22;39093;52.788;6.940;2023-03-31T02:21:31;10.20;99.90
53208;DHT22;39093;52.788;6.940;2023-03-31T02:24:03;10.20;99.90
53208;DHT22;39093;52.788;6.940;2023-03-31T02:26:35;10.10;99.90
53208;DHT22;39093;52.788;6.940;2023-03-31T02:29:03;10.10;99.90
53208;DHT22;39093;52.788;6.940;2023-03-31T02:33:57;10.20;99.90
53208;DHT22;39093;52.788;6.940;2023-03-31T02:36:24;10.20;99.90
53208;DHT22;39093;52.788;6.940;2023-03-31T02:39:02;10.20;99.90
53208;DHT22;39093;52.788;6.940;2023-03-31T02:41:31;10.20;99.90
53208;DHT22;39093;52.788;6.940;2023-03-31T02:43:59;10.10;99.90
53208;DHT22;39093;52.788;6.940;2023-03-31T02:46:26;10.20;99.90
53208;DHT22;39093;52.788;6.940;2023-03-31T02:49:00;10.10;99.90
53208;DHT22;39093;52.788;6.940;2023-03-31T03:01:06;10.20;99.90
53208;DHT22;39093;52.788;6.940;2023-03-31T03:03:47;10.20;99.90
53208;DHT22;39093;52.788;6.940;2023-03-31T03:17:31;10.30;99.90
53208;DHT22;39093;52.788;6.940;2023-03-31T03:20:00;10.30;99.90
53208;DHT22;39093;52.788;6.940;2023-03-31T03:22:27;10.30;99.90
53208;DHT22;39093;52.788;6.940;2023-03-31T03:24:54;10.30;99.90
53208;DHT22;39093;52.788;6.940;2023-03-31T03:27:21;10.40;99.90
53208;DHT22;39093;52.788;6.940;2023-03-31T03:29:48;10.40;99.90
53208;DHT22;39093;52.788;6.940;2023-03-31T03:32:15;10.40;99.90
53208;DHT22;39093;52.788;6.940;2023-03-31T03:34:42;10.40;99.90
53208;DHT22;39093;52.788;6.940;2023-03-31T03:37:09;10.40;99.90
53208;DHT22;39093;52.788;6.940;2023-03-31T03:39:36;10.40;99.90
53208;DHT22;39093;52.788;6.940;2023-03-31T03:42:03;10.40;99.90
53208;DHT22;39093;52.788;6.940;2023-03-31T03:44:30;10.40;99.90
53208;DHT22;39093;52.788;6.940;2023-03-31T03:46:57;10.40;99.90
53208;DHT22;39093;52.788;6.940;2023-03-31T03:49:23;10.40;99.90
53208;DHT22;39093;52.788;6.940;2023-03-31T03:51:50;10.40;99.90
53208;DHT22;39093;52.788;6.940;2023-03-31T03:54:18;10.30;99.90
53208;DHT22;39093;52.788;6.940;2023-03-31T03:56:45;10.30;99.90
53208;DHT22;39093;52.788;6.940;2023-03-31T03:59:12;10.30;99.90
53208;DHT22;39093;52.788;6.940;2023-03-31T04:01:39;10.30;99.90
53208;DHT22;39093;52.788;6.940;2023-03-31T04:04:06;10.20;99.90
53208;DHT22;39093;52.788;6.940;2023-03-31T04:06:33;10.20;99.90
53208;DHT22;39093;52.788;6.940;2023-03-31T04:09:00;10.20;99.90
53208;DHT22;39093;52.788;6.940;2023-03-31T04:11:28;10.20;99.90
53208;DHT22;39093;52.788;6.940;2023-03-31T04:13:55;10.10;99.90
53208;DHT22;39093;52.788;6.940;2023-03-31T04:16:22;10.10;99.90
53208;DHT22;39093;52.788;6.940;2023-03-31T04:18:52;10.10;99.90
53208;DHT22;39093;52.788;6.940;2023-03-31T04:21:22;10.10;99.90
53208;DHT22;39093;52.788;6.940;2023-03-31T04:23:53;10.10;99.90
53208;DHT22;39093;52.788;6.940;2023-03-31T04:26:34;10.10;99.90
53208;DHT22;39093;52.788;6.940;2023-03-31T04:29:12;10.00;99.90
53208;DHT22;39093;52.788;6.940;2023-03-31T04:31:40;10.00;99.90
53208;DHT22;39093;52.788;6.940;2023-03-31T04:34:12;10.00;99.90
53208;DHT22;39093;52.788;6.940;2023-03-31T04:36:44;10.00;99.90
53208;DHT22;39093;52.788;6.940;2023-03-31T04:39:15;10.00;99.90
53208;DHT22;39093;52.788;6.940;2023-03-31T04:41:43;9.90;99.90
53208;DHT22;39093;52.788;6.940;2023-03-31T04:44:10;10.00;99.90
53208;DHT22;39093;52.788;6.940;2023-03-31T04:46:37;10.00;99.90
53208;DHT22;39093;52.788;6.940;2023-03-31T04:49:04;10.00;99.90
53208;DHT22;39093;52.788;6.940;2023-03-31T04:51:31;10.00;99.90
53208;DHT22;39093;52.788;6.940;2023-03-31T04:53:58;9.90;99.90
53208;DHT22;39093;52.788;6.940;2023-03-31T04:56:25;9.90;99.90
53208;DHT22;39093;52.788;6.940;2023-03-31T04:58:53;10.00;99.90
53208;DHT22;39093;52.788;6.940;2023-03-31T05:01:19;10.00;99.90
53208;DHT22;39093;52.788;6.940;2023-03-31T05:03:47;10.00;99.90
53208;DHT22;39093;52.788;6.940;2023-03-31T05:06:15;10.00;99.90
53208;DHT22;39093;52.788;6.940;2023-03-31T05:08:43;10.00;99.90
53208;DHT22;39093;52.788;6.940;2023-03-31T05:11:10;9.90;99.90
53208;DHT22;39093;52.788;6.940;2023-03-31T05:13:36;9.90;99.90
53208;DHT22;39093;52.788;6.940;2023-03-31T05:16:08;9.90;99.90
53208;DHT22;39093;52.788;6.940;2023-03-31T05:18:36;9.90;99.90
53208;DHT22;39093;52.788;6.940;2023-03-31T05:21:18;9.90;99.90
53208;DHT22;39093;52.788;6.940;2023-03-31T05:23:47;9.90;99.90
53208;DHT22;39093;52.788;6.940;2023-03-31T05:26:14;9.90;99.90
53208;DHT22;39093;52.788;6.940;2023-03-31T05:28:41;9.90;99.90
53208;DHT22;39093;52.788;6.940;2023-03-31T05:31:09;9.90;99.90
53208;DHT22;39093;52.788;6.940;2023-03-31T05:33:37;9.90;99.90
53208;DHT22;39093;52.788;6.940;2023-03-31T05:36:13;9.90;99.90
53208;DHT22;39093;52.788;6.940;2023-03-31T05:38:41;9.90;99.90
53208;DHT22;39093;52.788;6.940;2023-03-31T05:41:09;9.90;99.90
53208;DHT22;39093;52.788;6.940;2023-03-31T05:43:37;9.90;99.90
53208;DHT22;39093;52.788;6.940;2023-03-31T05:46:05;9.90;99.90
53208;DHT22;39093;52.788;6.940;2023-03-31T05:48:33;9.90;99.90
53208;DHT22;39093;52.788;6.940;2023-03-31T05:51:00;9.90;99.90
53208;DHT22;39093;52.788;6.940;2023-03-31T05:53:27;9.90;99.90
53208;DHT22;39093;52.788;6.940;2023-03-31T05:55:58;9.90;99.90
53208;DHT22;39093;52.788;6.940;2023-03-31T05:58:26;9.90;99.90
53208;DHT22;39093;52.788;6.940;2023-03-31T06:01:09;9.90;99.90
53208;DHT22;39093;52.788;6.940;2023-03-31T06:03:39;9.90;99.90
53208;DHT22;39093;52.788;6.940;2023-03-31T06:06:08;9.80;99.90
53208;DHT22;39093;52.788;6.940;2023-03-31T06:08:36;9.80;99.90
53208;DHT22;39093;52.788;6.940;2023-03-31T06:11:08;9.90;99.90
53208;DHT22;39093;52.788;6.940;2023-03-31T06:13:37;9.80;99.90
53208;DHT22;39093;52.788;6.940;2023-03-31T06:16:04;9.80;99.90
53208;DHT22;39093;52.788;6.940;2023-03-31T06:18:33;9.80;99.90
53208;DHT22;39093;52.788;6.940;2023-03-31T06:21:02;9.80;99.90
53208;DHT22;39093;52.788;6.940;2023-03-31T06:23:29;9.80;99.90
53208;DHT22;39093;52.788;6.940;2023-03-31T06:26:05;9.80;99.90
53208;DHT22;39093;52.788;6.940;2023-03-31T06:28:34;9.80;99.90
53208;DHT22;39093;52.788;6.940;2023-03-31T06:31:04;9.80;99.90
53208;DHT22;39093;52.788;6.940;2023-03-31T06:33:32;9.90;99.90
53208;DHT22;39093;52.788;6.940;2023-03-31T06:35:59;9.80;99.90
53208;DHT22;39093;52.788;6.940;2023-03-31T06:38:30;9.80;99.90
53208;DHT22;39093;52.788;6.940;2023-03-31T06:40:57;9.80;99.90
53208;DHT22;39093;52.788;6.940;2023-03-31T06:43:24;9.80;99.90
53208;DHT22;39093;52.788;6.940;2023-03-31T06:45:55;9.80;99.90
53208;DHT22;39093;52.788;6.940;2023-03-31T06:48:23;9.80;99.90
53208;DHT22;39093;52.788;6.940;2023-03-31T06:50:52;9.80;99.90
53208;DHT22;39093;52.788;6.940;2023-03-31T06:53:20;9.80;99.90
53208;DHT22;39093;52.788;6.940;2023-03-31T06:55:48;9.80;99.90
53208;DHT22;39093;52.788;6.940;2023-03-31T06:58:15;9.80;99.90
53208;DHT22;39093;52.788;6.940;2023-03-31T07:00:42;9.80;99.90
53208;DHT22;39093;52.788;6.940;2023-03-31T07:03:11;9.90;99.90
53208;DHT22;39093;52.788;6.940;2023-03-31T07:05:38;9.90;99.90
53208;DHT22;39093;52.788;6.940;2023-03-31T07:08:05;9.90;99.90
53208;DHT22;39093;52.788;6.940;2023-03-31T07:10:32;9.90;99.90
53208;DHT22;39093;52.788;6.940;2023-03-31T07:12:59;9.90;99.90
53208;DHT22;39093;52.788;6.940;2023-03-31T07:15:26;10.00;99.90
53208;DHT22;39093;52.788;6.940;2023-03-31T07:17:57;9.90;99.90
53208;DHT22;39093;52.788;6.940;2023-03-31T07:20:28;10.00;99.90
53208;DHT22;39093;52.788;6.940;2023-03-31T07:22:56;10.00;99.90
53208;DHT22;39093;52.788;6.940;2023-03-31T07:25:23;10.00;99.90
53208;DHT22;39093;52.788;6.940;2023-03-31T07:27:50;10.00;99.90
53208;DHT22;39093;52.788;6.940;2023-03-31T07:30:18;10.10;99.90
53208;DHT22;39093;52.788;6.940;2023-03-31T07:32:46;10.10;99.90
53208;DHT22;39093;52.788;6.940;2023-03-31T07:35:13;10.10;99.90
53208;DHT22;39093;52.788;6.940;2023-03-31T07:37:42;10.20;99.90
53208;DHT22;39093;52.788;6.940;2023-03-31T07:40:12;10.20;99.90
53208;DHT22;39093;52.788;6.940;2023-03-31T07:42:41;10.20;99.90
53208;DHT22;39093;52.788;6.940;2023-03-31T07:45:09;10.20;99.90
53208;DHT22;39093;52.788;6.940;2023-03-31T07:47:36;10.20;99.90
53208;DHT22;39093;52.788;6.940;2023-03-31T07:50:04;10.20;99.90
53208;DHT22;39093;52.788;6.940;2023-03-31T07:52:31;10.20;99.90
53208;DHT22;39093;52.788;6.940;2023-03-31T07:54:58;10.20;99.90
53208;DHT22;39093;52.788;6.940;2023-03-31T07:57:25;10.30;99.90
53208;DHT22;39093;52.788;6.940;2023-03-31T07:59:52;10.30;99.90
53208;DHT22;39093;52.788;6.940;2023-03-31T08:02:19;10.30;99.90
53208;DHT22;39093;52.788;6.940;2023-03-31T08:04:49;10.30;99.90
53208;DHT22;39093;52.788;6.940;2023-03-31T08:07:16;10.30;99.90
53208;DHT22;39093;52.788;6.940;2023-03-31T08:09:45;10.40;99.90
53208;DHT22;39093;52.788;6.940;2023-03-31T08:12:13;10.40;99.90
53208;DHT22;39093;52.788;6.940;2023-03-31T08:14:41;10.40;99.90
53208;DHT22;39093;52.788;6.940;2023-03-31T08:17:09;10.40;99.90
53208;DHT22;39093;52.788;6.940;2023-03-31T08:19:36;10.40;99.90
53208;DHT22;39093;52.788;6.940;2023-03-31T08:22:03;10.40;99.90
53208;DHT22;39093;52.788;6.940;2023-03-31T08:24:30;10.40;99.90
53208;DHT22;39093;52.788;6.940;2023-03-31T08:26:57;10.50;99.90
53208;DHT22;39093;52.788;6.940;2023-03-31T08:29:24;10.50;99.90
53208;DHT22;39093;52.788;6.940;2023-03-31T08:31:53;10.40;99.90
53208;DHT22;39093;52.788;6.940;2023-03-31T08:34:20;10.40;99.90
53208;DHT22;39093;52.788;6.940;2023-03-31T08:36:47;10.40;99.90
53208;DHT22;39093;52.788;6.940;2023-03-31T08:39:14;10.40;99.90
53208;DHT22;39093;52.788;6.940;2023-03-31T08:42:00;10.40;99.90
53208;DHT22;39093;52.788;6.940;2023-03-31T08:44:38;10.40;99.90
53208;DHT22;39093;52.788;6.940;2023-03-31T08:47:14;10.40;99.90
53208;DHT22;39093;52.788;6.940;2023-03-31T08:49:49;10.40;99.90
53208;DHT22;39093;52.788;6.940;2023-03-31T08:52:30;10.40;99.90
53208;DHT22;39093;52.788;6.940;2023-03-31T08:55:04;10.50;99.90
53208;DHT22;39093;52.788;6.940;2023-03-31T08:57:53;10.50;99.90
53208;DHT22;39093;52.788;6.940;2023-03-31T09:00:22;10.50;99.90
53208;DHT22;39093;52.788;6.940;2023-03-31T09:08:40;10.60;99.90
53208;DHT22;39093;52.788;6.940;2023-03-31T09:19:21;10.60;99.90
53208;DHT22;39093;52.788;6.940;2023-03-31T09:21:54;10.70;99.90
53208;DHT22;39093;52.788;6.940;2023-03-31T09:24:31;10.70;99.90
53208;DHT22;39093;52.788;6.940;2023-03-31T09:27:06;10.70;99.90
53208;DHT22;39093;52.788;6.940;2023-03-31T09:32:09;10.70;99.90
53208;DHT22;39093;52.788;6.940;2023-03-31T09:34:39;10.80;99.90
53208;DHT22;39093;52.788;6.940;2023-03-31T09:37:10;10.80;99.90
53208;DHT22;39093;52.788;6.940;2023-03-31T09:39:38;10.90;99.90
53208;DHT22;39093;52.788;6.940;2023-03-31T09:42:07;10.90;99.90
53208;DHT22;39093;52.788;6.940;2023-03-31T09:44:40;10.90;99.90
53208;DHT22;39093;52.788;6.940;2023-03-31T09:47:32;10.90;99.90
53208;DHT22;39093;52.788;6.940;2023-03-31T09:50:05;10.80;99.90
53208;DHT22;39093;52.788;6.940;2023-03-31T09:52:45;10.80;99.90
53208;DHT22;39093;52.788;6.940;2023-03-31T09:58:14;10.80;99.90
53208;DHT22;39093;52.788;6.940;2023-03-31T10:00:55;10.80;99.90
53208;DHT22;39093;52.788;6.940;2023-03-31T10:03:24;10.80;99.90
53208;DHT22;39093;52.788;6.940;2023-03-31T10:05:53;10.80;99.90
53208;DHT22;39093;52.788;6.940;2023-03-31T10:08:30;10.90;99.90
53208;DHT22;39093;52.788;6.940;2023-03-31T10:13:36;10.90;99.90
53208;DHT22;39093;52.788;6.940;2023-03-31T10:16:12;11.00;99.90
53208;DHT22;39093;52.788;6.940;2023-03-31T10:18:41;11.00;99.90
53208;DHT22;39093;52.788;6.940;2023-03-31T10:21:33;11.00;99.90
53208;DHT22;39093;52.788;6.940;2023-03-31T10:24:08;11.00;99.90
53208;DHT22;39093;52.788;6.940;2023-03-31T10:26:36;11.00;99.90
53208;DHT22;39093;52.788;6.940;2023-03-31T10:29:10;11.10;99.90
53208;DHT22;39093;52.788;6.940;2023-03-31T10:31:38;11.10;99.90
53208;DHT22;39093;52.788;6.940;2023-03-31T10:34:08;11.10;99.90
53208;DHT22;39093;52.788;6.940;2023-03-31T10:36:48;11.20;99.90
53208;DHT22;39093;52.788;6.940;2023-03-31T10:39:18;11.20;99.90
53208;DHT22;39093;52.788;6.940;2023-03-31T10:41:51;11.40;99.90
53208;DHT22;39093;52.788;6.940;2023-03-31T10:44:55;11.50;99.90
53208;DHT22;39093;52.788;6.940;2023-03-31T10:47:35;11.60;99.90
53208;DHT22;39093;52.788;6.940;2023-03-31T10:50:13;11.60;99.90
53208;DHT22;39093;52.788;6.940;2023-03-31T10:52:46;11.60;99.90
53208;DHT22;39093;52.788;6.940;2023-03-31T10:55:26;11.50;99.90
53208;DHT22;39093;52.788;6.940;2023-03-31T10:58:19;11.40;99.90
53208;DHT22;39093;52.788;6.940;2023-03-31T11:06:14;11.40;99.90
53208;DHT22;39093;52.788;6.940;2023-03-31T11:11:46;11.60;99.90
53208;DHT22;39093;52.788;6.940;2023-03-31T11:14:52;11.80;99.90
53208;DHT22;39093;52.788;6.940;2023-03-31T11:20:26;12.10;99.90
53208;DHT22;39093;52.788;6.940;2023-03-31T11:23:06;12.00;99.90
53208;DHT22;39093;52.788;6.940;2023-03-31T11:25:42;12.00;99.90
53208;DHT22;39093;52.788;6.940;2023-03-31T11:28:23;12.00;99.90
53208;DHT22;39093;52.788;6.940;2023-03-31T11:42:18;12.00;99.90
53208;DHT22;39093;52.788;6.940;2023-03-31T11:44:49;12.00;99.90
53208;DHT22;39093;52.788;6.940;2023-03-31T11:47:21;12.00;99.90
53208;DHT22;39093;52.788;6.940;2023-03-31T11:49:59;12.00;99.90
53208;DHT22;39093;52.788;6.940;2023-03-31T11:52:34;12.00;99.90
53208;DHT22;39093;52.788;6.940;2023-03-31T11:55:20;12.00;99.90
53208;DHT22;39093;52.788;6.940;2023-03-31T11:58:09;12.00;99.90
53208;DHT22;39093;52.788;6.940;2023-03-31T12:00:47;11.90;99.90
53208;DHT22;39093;52.788;6.940;2023-03-31T12:03:42;12.00;99.90
53208;DHT22;39093;52.788;6.940;2023-03-31T12:06:15;11.90;99.90
53208;DHT22;39093;52.788;6.940;2023-03-31T12:09:05;11.90;99.90
53208;DHT22;39093;52.788;6.940;2023-03-31T12:11:47;11.90;99.90
53208;DHT22;39093;52.788;6.940;2023-03-31T12:14:32;11.90;99.90
53208;DHT22;39093;52.788;6.940;2023-03-31T12:17:10;11.90;99.90
53208;DHT22;39093;52.788;6.940;2023-03-31T12:22:23;11.80;99.90
53208;DHT22;39093;52.788;6.940;2023-03-31T12:24:52;11.80;99.90
53208;DHT22;39093;52.788;6.940;2023-03-31T12:27:35;11.80;99.90
53208;DHT22;39093;52.788;6.940;2023-03-31T12:30:13;12.00;99.90
53208;DHT22;39093;52.788;6.940;2023-03-31T12:32:52;12.10;99.90
53208;DHT22;39093;52.788;6.940;2023-03-31T12:41:16;13.00;99.90
53208;DHT22;39093;52.788;6.940;2023-03-31T12:59:34;13.50;99.90
53208;DHT22;39093;52.788;6.940;2023-03-31T13:04:42;13.30;99.90
53208;DHT22;39093;52.788;6.940;2023-03-31T13:10:22;13.10;99.90
53208;DHT22;39093;52.788;6.940;2023-03-31T13:13:03;13.10;99.90
53208;DHT22;39093;52.788;6.940;2023-03-31T13:15:31;13.20;99.90
53208;DHT22;39093;52.788;6.940;2023-03-31T13:18:04;13.30;99.90
53208;DHT22;39093;52.788;6.940;2023-03-31T13:20:36;13.40;99.90
53208;DHT22;39093;52.788;6.940;2023-03-31T13:23:05;13.30;99.90
53208;DHT22;39093;52.788;6.940;2023-03-31T13:25:56;13.20;99.90
53208;DHT22;39093;52.788;6.940;2023-03-31T13:33:58;13.00;99.90
53208;DHT22;39093;52.788;6.940;2023-03-31T14:01:55;12.70;99.90
53208;DHT22;39093;52.788;6.940;2023-03-31T14:04:55;12.60;99.90
53208;DHT22;39093;52.788;6.940;2023-03-31T14:07:33;12.70;99.90
53208;DHT22;39093;52.788;6.940;2023-03-31T14:10:04;12.50;99.90
53208;DHT22;39093;52.788;6.940;2023-03-31T14:12:37;12.40;99.90
53208;DHT22;39093;52.788;6.940;2023-03-31T14:15:05;12.30;99.90
53208;DHT22;39093;52.788;6.940;2023-03-31T14:17:35;12.20;99.90
53208;DHT22;39093;52.788;6.940;2023-03-31T14:25:47;12.10;99.90
53208;DHT22;39093;52.788;6.940;2023-03-31T14:33:49;11.90;99.90
53208;DHT22;39093;52.788;6.940;2023-03-31T14:39:05;11.90;99.90
53208;DHT22;39093;52.788;6.940;2023-03-31T14:41:35;11.90;99.90
53208;DHT22;39093;52.788;6.940;2023-03-31T14:44:05;11.80;99.90
53208;DHT22;39093;52.788;6.940;2023-03-31T14:46:37;11.80;99.90
53208;DHT22;39093;52.788;6.940;2023-03-31T14:49:21;11.80;99.90
53208;DHT22;39093;52.788;6.940;2023-03-31T14:51:52;11.90;99.90
53208;DHT22;39093;52.788;6.940;2023-03-31T14:54:20;11.80;99.90
53208;DHT22;39093;52.788;6.940;2023-03-31T14:56:50;11.90;99.90
53208;DHT22;39093;52.788;6.940;2023-03-31T14:59:23;12.00;99.90
53208;DHT22;39093;52.788;6.940;2023-03-31T15:01:51;12.00;99.90
53208;DHT22;39093;52.788;6.940;2023-03-31T15:04:23;12.00;99.90
53208;DHT22;39093;52.788;6.940;2023-03-31T15:07:07;12.00;99.90
53208;DHT22;39093;52.788;6.940;2023-03-31T15:09:34;12.10;99.90
53208;DHT22;39093;52.788;6.940;2023-03-31T15:12:13;12.20;99.90
53208;DHT22;39093;52.788;6.940;2023-03-31T15:14:49;12.20;99.90
53208;DHT22;39093;52.788;6.940;2023-03-31T15:17:21;12.20;99.90
53208;DHT22;39093;52.788;6.940;2023-03-31T15:19:57;12.20;99.90
53208;DHT22;39093;52.788;6.940;2023-03-31T15:22:26;12.20;99.90
53208;DHT22;39093;52.788;6.940;2023-03-31T15:24:57;12.20;99.90
53208;DHT22;39093;52.788;6.940;2023-03-31T15:27:46;12.10;99.90
53208;DHT22;39093;52.788;6.940;2023-03-31T15:30:21;12.10;99.90
53208;DHT22;39093;52.788;6.940;2023-03-31T15:32:49;12.30;99.90
53208;DHT22;39093;52.788;6.940;2023-03-31T17:34:21;11.40;99.90
53208;DHT22;39093;52.788;6.940;2023-03-31T17:36:48;11.40;99.90
53208;DHT22;39093;52.788;6.940;2023-03-31T17:39:17;11.40;99.90
53208;DHT22;39093;52.788;6.940;2023-03-31T17:41:43;11.40;99.90
53208;DHT22;39093;52.788;6.940;2023-03-31T17:44:11;11.40;99.90
53208;DHT22;39093;52.788;6.940;2023-03-31T17:46:37;11.40;99.90
53208;DHT22;39093;52.788;6.940;2023-03-31T17:49:04;11.30;99.90
53208;DHT22;39093;52.788;6.940;2023-03-31T17:51:31;11.30;99.90
53208;DHT22;39093;52.788;6.940;2023-03-31T17:54:00;11.30;99.90
53208;DHT22;39093;52.788;6.940;2023-03-31T17:56:28;11.30;99.90
53208;DHT22;39093;52.788;6.940;2023-03-31T17:58:55;11.20;99.90
53208;DHT22;39093;52.788;6.940;2023-03-31T18:01:22;11.20;99.90
53208;DHT22;39093;52.788;6.940;2023-03-31T18:03:49;11.20;99.90
53208;DHT22;39093;52.788;6.940;2023-03-31T18:06:16;11.20;99.90
53208;DHT22;39093;52.788;6.940;2023-03-31T18:08:43;11.10;99.90
53208;DHT22;39093;52.788;6.940;2023-03-31T18:11:10;11.20;99.90
53208;DHT22;39093;52.788;6.940;2023-03-31T18:13:39;11.20;99.90
53208;DHT22;39093;52.788;6.940;2023-03-31T18:16:06;11.10;99.90
53208;DHT22;39093;52.788;6.940;2023-03-31T18:18:38;11.10;99.90
53208;DHT22;39093;52.788;6.940;2023-03-31T18:21:08;11.10;99.90
53208;DHT22;39093;52.788;6.940;2023-03-31T18:23:36;11.10;99.90
53208;DHT22;39093;52.788;6.940;2023-03-31T18:26:07;11.00;99.90
53208;DHT22;39093;52.788;6.940;2023-03-31T18:28:36;11.00;99.90
53208;DHT22;39093;52.788;6.940;2023-03-31T18:31:04;11.00;99.90
53208;DHT22;39093;52.788;6.940;2023-03-31T18:33:32;11.00;99.90
53208;DHT22;39093;52.788;6.940;2023-03-31T18:35:59;10.90;99.90
53208;DHT22;39093;52.788;6.940;2023-03-31T18:38:26;10.90;99.90
53208;DHT22;39093;52.788;6.940;2023-03-31T18:40:53;10.90;99.90
53208;DHT22;39093;52.788;6.940;2023-03-31T18:43:21;10.90;99.90
53208;DHT22;39093;52.788;6.940;2023-03-31T18:45:50;10.90;99.90
53208;DHT22;39093;52.788;6.940;2023-03-31T18:48:20;10.90;99.90
53208;DHT22;39093;52.788;6.940;2023-03-31T18:50:50;10.90;99.90
53208;DHT22;39093;52.788;6.940;2023-03-31T18:53:19;10.80;99.90
53208;DHT22;39093;52.788;6.940;2023-03-31T18:55:51;10.80;99.90
53208;DHT22;39093;52.788;6.940;2023-03-31T18:58:18;10.80;99.90
53208;DHT22;39093;52.788;6.940;2023-03-31T19:00:45;10.80;99.90
53208;DHT22;39093;52.788;6.940;2023-03-31T19:03:13;10.80;99.90
53208;DHT22;39093;52.788;6.940;2023-03-31T19:05:40;10.80;99.90
53208;DHT22;39093;52.788;6.940;2023-03-31T19:08:07;10.80;99.90
53208;DHT22;39093;52.788;6.940;2023-03-31T19:10:34;10.80;99.90
53208;DHT22;39093;52.788;6.940;2023-03-31T19:13:02;10.80;99.90
53208;DHT22;39093;52.788;6.940;2023-03-31T19:15:29;10.80;99.90
53208;DHT22;39093;52.788;6.940;2023-03-31T19:17:56;10.80;99.90
53208;DHT22;39093;52.788;6.940;2023-03-31T19:20:23;10.80;99.90
53208;DHT22;39093;52.788;6.940;2023-03-31T19:22:51;10.70;99.90
53208;DHT22;39093;52.788;6.940;2023-03-31T19:25:19;10.80;99.90
53208;DHT22;39093;52.788;6.940;2023-03-31T19:27:46;10.70;99.90
53208;DHT22;39093;52.788;6.940;2023-03-31T19:30:16;10.70;99.90
53208;DHT22;39093;52.788;6.940;2023-03-31T19:32:47;10.70;99.90
53208;DHT22;39093;52.788;6.940;2023-03-31T19:35:18;10.70;99.90
53208;DHT22;39093;52.788;6.940;2023-03-31T19:37:45;10.60;99.90
53208;DHT22;39093;52.788;6.940;2023-03-31T19:40:13;10.70;99.90
53208;DHT22;39093;52.788;6.940;2023-03-31T19:42:40;10.60;99.90
53208;DHT22;39093;52.788;6.940;2023-03-31T19:45:10;10.60;99.90
53208;DHT22;39093;52.788;6.940;2023-03-31T19:47:37;10.70;99.90
53208;DHT22;39093;52.788;6.940;2023-03-31T19:50:04;10.60;99.90
53208;DHT22;39093;52.788;6.940;2023-03-31T19:52:33;10.60;99.90
53208;DHT22;39093;52.788;6.940;2023-03-31T19:55:00;10.60;99.90
53208;DHT22;39093;52.788;6.940;2023-03-31T19:57:27;10.50;99.90
53208;DHT22;39093;52.788;6.940;2023-03-31T19:59:54;10.50;99.90
53208;DHT22;39093;52.788;6.940;2023-03-31T20:02:22;10.50;99.90
53208;DHT22;39093;52.788;6.940;2023-03-31T20:04:49;10.50;99.90
53208;DHT22;39093;52.788;6.940;2023-03-31T20:07:17;10.50;99.90
53208;DHT22;39093;52.788;6.940;2023-03-31T20:09:44;10.50;99.90
53208;DHT22;39093;52.788;6.940;2023-03-31T20:12:11;10.50;99.90
53208;DHT22;39093;52.788;6.940;2023-03-31T20:14:38;10.50;99.90
53208;DHT22;39093;52.788;6.940;2023-03-31T20:17:06;10.50;99.90
53208;DHT22;39093;52.788;6.940;2023-03-31T20:19:33;10.40;99.90
53208;DHT22;39093;52.788;6.940;2023-03-31T20:22:00;10.40;99.90
53208;DHT22;39093;52.788;6.940;2023-03-31T20:24:28;10.40;99.90
53208;DHT22;39093;52.788;6.940;2023-03-31T20:26:55;10.40;99.90
53208;DHT22;39093;52.788;6.940;2023-03-31T20:29:23;10.40;99.90
53208;DHT22;39093;52.788;6.940;2023-03-31T20:31:50;10.40;99.90
53208;DHT22;39093;52.788;6.940;2023-03-31T20:34:25;10.40;99.90
53208;DHT22;39093;52.788;6.940;2023-03-31T20:36:53;10.40;99.90
53208;DHT22;39093;52.788;6.940;2023-03-31T20:39:23;10.50;99.90
53208;DHT22;39093;52.788;6.940;2023-03-31T20:41:50;10.50;99.90
53208;DHT22;39093;52.788;6.940;2023-03-31T20:44:17;10.40;99.90
53208;DHT22;39093;52.788;6.940;2023-03-31T20:46:45;10.40;99.90
53208;DHT22;39093;52.788;6.940;2023-03-31T20:49:12;10.40;99.90